createdAt,value
2022-11-07T00:00:27.580Z,100.00
2022-11-07T00:02:54.369Z,100.00
2022-11-07T00:05:21.608Z,100.00
2022-11-07T00:07:48.210Z,100.00
2022-11-07T00:10:14.957Z,100.00
2022-11-07T00:12:41.575Z,100.00
2022-11-07T00:15:08.619Z,100.00
2022-11-07T00:17:35.264Z,100.00
2022-11-07T00:20:01.851Z,100.00
2022-11-07T00:22:28.437Z,100.00
2022-11-07T00:24:55.053Z,100.00
2022-11-07T00:27:21.781Z,100.00
2022-11-07T00:29:48.423Z,100.00
2022-11-07T00:32:15.037Z,100.00
2022-11-07T00:34:41.660Z,100.00
2022-11-07T00:37:08.289Z,100.00
2022-11-07T00:39:34.896Z,100.00
2022-11-07T00:42:01.508Z,100.00
2022-11-07T00:44:28.069Z,100.00
2022-11-07T00:46:54.715Z,100.00
2022-11-07T00:49:21.271Z,100.00
2022-11-07T00:51:47.932Z,100.00
2022-11-07T00:54:14.506Z,100.00
2022-11-07T00:56:41.111Z,100.00
2022-11-07T00:59:07.748Z,100.00
2022-11-07T01:01:34.919Z,100.00
2022-11-07T01:04:20.020Z,100.00
2022-11-07T01:06:46.985Z,100.00
2022-11-07T01:09:17.420Z,100.00
2022-11-07T01:11:44.464Z,100.00
2022-11-07T01:14:12.450Z,100.00
2022-11-07T01:16:39.203Z,100.00
2022-11-07T01:19:08.384Z,100.00
2022-11-07T01:21:38.216Z,100.00
2022-11-07T01:24:06.369Z,100.00
2022-11-07T01:26:32.984Z,100.00
2022-11-07T01:28:59.840Z,100.00
2022-11-07T01:31:26.438Z,100.00
2022-11-07T01:33:53.020Z,100.00
2022-11-07T01:36:19.633Z,100.00
2022-11-07T01:38:50.743Z,100.00
2022-11-07T01:41:26.535Z,100.00
2022-11-07T01:43:57.835Z,100.00
2022-11-07T01:46:32.387Z,100.00
2022-11-07T01:49:12.568Z,100.00
2022-11-07T01:51:49.169Z,99.99
2022-11-07T01:54:19.252Z,100.00
2022-11-07T01:56:46.847Z,100.00
2022-11-07T01:59:16.867Z,100.00
2022-11-07T02:01:43.776Z,100.00
2022-11-07T02:04:10.841Z,100.00
2022-11-07T02:06:49.831Z,100.00
2022-11-07T02:09:16.407Z,100.00
2022-11-07T02:11:43.028Z,100.00
2022-11-07T02:14:15.858Z,100.00
2022-11-07T02:16:43.088Z,100.00
2022-11-07T02:19:38.771Z,100.00
2022-11-07T02:22:22.571Z,100.00
2022-11-07T02:24:53.827Z,100.00
2022-11-07T02:27:24.482Z,100.00
2022-11-07T02:29:55.807Z,100.00
2022-11-07T02:32:22.557Z,100.00
2022-11-07T02:34:59.783Z,100.00
2022-11-07T02:37:39.052Z,100.00
2022-11-07T02:40:09.399Z,100.00
2022-11-07T02:42:44.768Z,100.00
2022-11-07T02:45:18.809Z,100.00
2022-11-07T02:47:45.451Z,100.00
2022-11-07T02:50:14.976Z,100.00
2022-11-07T02:52:42.199Z,100.00
2022-11-07T02:55:10.256Z,100.00
2022-11-07T02:57:36.852Z,100.00
2022-11-07T03:00:05.954Z,100.00
2022-11-07T03:02:32.658Z,100.00
2022-11-07T03:04:59.325Z,100.00
2022-11-07T03:07:26.007Z,100.00
2022-11-07T03:09:52.600Z,100.00
2022-11-07T03:12:19.224Z,100.00
2022-11-07T03:14:45.911Z,100.00
2022-11-07T03:17:12.602Z,100.00
2022-11-07T03:19:39.163Z,100.00
2022-11-07T03:22:05.765Z,100.00
2022-11-07T03:24:32.581Z,100.00
2022-11-07T03:26:59.387Z,100.00
2022-11-07T03:29:25.994Z,100.00
2022-11-07T03:31:52.571Z,99.78
2022-11-07T03:34:19.156Z,99.75
2022-11-07T03:36:45.741Z,99.33
2022-11-07T03:39:12.415Z,98.27
2022-11-07T03:41:39.016Z,97.64
2022-11-07T03:44:06.161Z,97.96
2022-11-07T03:46:32.739Z,98.04
2022-11-07T03:48:59.359Z,97.72
2022-11-07T03:51:25.914Z,98.36
2022-11-07T03:53:52.493Z,98.08
2022-11-07T03:56:19.131Z,97.15
2022-11-07T03:58:45.732Z,97.05
2022-11-07T04:01:13.288Z,96.46
2022-11-07T04:03:40.096Z,95.99
2022-11-07T04:06:07.002Z,95.09
2022-11-07T04:08:33.769Z,95.12
2022-11-07T04:11:00.394Z,94.61
2022-11-07T04:13:45.549Z,94.70
2022-11-07T04:16:17.402Z,95.07
2022-11-07T04:18:44.485Z,94.89
2022-11-07T04:21:11.041Z,94.24
2022-11-07T04:23:37.680Z,94.63
2022-11-07T04:26:23.247Z,94.35
2022-11-07T04:28:49.879Z,94.75
2022-11-07T04:31:16.455Z,94.42
2022-11-07T04:33:43.043Z,94.75
2022-11-07T04:36:09.714Z,93.97
2022-11-07T04:38:36.295Z,94.30
2022-11-07T04:41:04.636Z,94.22
2022-11-07T04:43:31.325Z,92.88
2022-11-07T04:45:58.024Z,92.93
2022-11-07T04:48:24.666Z,92.98
2022-11-07T04:50:51.421Z,92.16
2022-11-07T04:53:18.815Z,91.33
2022-11-07T04:55:45.434Z,91.51
2022-11-07T04:58:12.051Z,91.22
2022-11-07T05:00:38.787Z,91.23
2022-11-07T05:03:05.504Z,92.36
2022-11-07T05:05:32.208Z,91.25
2022-11-07T05:07:58.785Z,91.48
2022-11-07T05:10:28.080Z,92.10
2022-11-07T05:12:55.128Z,92.35
2022-11-07T05:15:21.754Z,93.03
2022-11-07T05:17:49.164Z,93.20
2022-11-07T05:20:33.830Z,93.28
2022-11-07T05:23:13.301Z,93.52
2022-11-07T05:25:46.799Z,93.51
2022-11-07T05:28:19.106Z,92.44
2022-11-07T05:30:49.087Z,91.47
2022-11-07T05:33:18.483Z,91.16
2022-11-07T05:35:46.659Z,91.41
2022-11-07T05:38:13.345Z,91.55
2022-11-07T05:40:41.370Z,92.04
2022-11-07T05:43:10.597Z,91.95
2022-11-07T05:45:38.240Z,92.09
2022-11-07T05:48:08.086Z,91.75
2022-11-07T05:50:35.546Z,91.90
2022-11-07T05:53:02.754Z,91.40
2022-11-07T05:55:29.759Z,91.04
2022-11-07T05:57:56.359Z,90.55
2022-11-07T06:00:23.622Z,90.12
2022-11-07T06:02:58.144Z,90.51
2022-11-07T06:05:24.898Z,90.25
2022-11-07T06:07:51.711Z,90.83
2022-11-07T06:10:18.580Z,90.53
2022-11-07T06:12:45.304Z,90.49
2022-11-07T06:15:11.985Z,90.35
2022-11-07T06:17:38.851Z,89.71
2022-11-07T06:20:05.966Z,89.79
2022-11-07T06:22:32.546Z,89.31
2022-11-07T06:24:59.118Z,89.21
2022-11-07T06:27:25.696Z,89.09
2022-11-07T06:29:52.308Z,88.78
2022-11-07T06:32:18.880Z,88.69
2022-11-07T06:34:45.515Z,89.08
2022-11-07T06:37:12.078Z,89.31
2022-11-07T06:39:38.669Z,88.96
2022-11-07T06:42:05.282Z,88.16
2022-11-07T06:44:31.956Z,88.00
2022-11-07T06:46:58.656Z,87.03
2022-11-07T06:49:25.251Z,87.50
2022-11-07T06:51:51.840Z,87.19
2022-11-07T06:54:18.476Z,86.85
2022-11-07T06:56:45.150Z,87.26
2022-11-07T06:59:11.917Z,87.23
2022-11-07T07:01:38.620Z,87.51
2022-11-07T07:04:05.517Z,86.77
2022-11-07T07:06:32.182Z,86.44
2022-11-07T07:08:58.791Z,86.72
2022-11-07T07:11:25.383Z,86.42
2022-11-07T07:13:51.958Z,85.70
2022-11-07T07:16:18.569Z,85.87
2022-11-07T07:18:45.268Z,85.67
2022-11-07T07:21:14.417Z,85.87
2022-11-07T07:23:41.341Z,85.40
2022-11-07T07:26:12.986Z,84.98
2022-11-07T07:28:40.319Z,84.99
2022-11-07T07:31:31.589Z,84.83
2022-11-07T07:33:58.782Z,85.34
2022-11-07T07:36:25.928Z,84.40
2022-11-07T07:38:52.921Z,84.39
2022-11-07T07:41:19.960Z,84.61
2022-11-07T07:43:46.669Z,84.65
2022-11-07T07:46:19.407Z,84.58
2022-11-07T07:48:45.993Z,83.91
2022-11-07T07:51:12.619Z,84.22
2022-11-07T07:53:39.210Z,84.02
2022-11-07T07:56:07.374Z,83.22
2022-11-07T07:58:34.493Z,83.48
2022-11-07T08:01:01.383Z,83.60
2022-11-07T08:03:32.139Z,83.31
2022-11-07T08:06:02.227Z,84.06
2022-11-07T08:08:31.522Z,83.50
2022-11-07T08:11:07.251Z,83.82
2022-11-07T08:13:34.406Z,82.99
2022-11-07T08:16:03.699Z,82.56
2022-11-07T08:18:30.417Z,82.24
2022-11-07T08:20:57.215Z,81.82
2022-11-07T08:23:24.431Z,80.65
2022-11-07T08:25:53.430Z,80.75
2022-11-07T08:28:21.671Z,80.31
2022-11-07T08:30:59.688Z,80.34
2022-11-07T08:33:26.973Z,81.27
2022-11-07T08:35:55.662Z,81.03
2022-11-07T08:38:22.854Z,81.79
2022-11-07T08:40:50.629Z,81.68
2022-11-07T08:43:18.507Z,81.53
2022-11-07T08:45:47.617Z,82.16
2022-11-07T08:48:15.950Z,82.38
2022-11-07T08:50:43.305Z,83.21
2022-11-07T08:53:10.352Z,84.05
2022-11-07T08:55:36.993Z,84.01
2022-11-07T08:58:08.135Z,85.06
2022-11-07T09:00:35.810Z,84.83
2022-11-07T09:05:53.552Z,85.10
2022-11-07T09:08:20.167Z,85.07
2022-11-07T09:10:46.815Z,84.87
2022-11-07T09:13:15.085Z,85.63
2022-11-07T09:15:44.984Z,85.70
2022-11-07T09:18:16.060Z,85.19
2022-11-07T09:20:42.681Z,84.63
2022-11-07T09:23:09.297Z,84.52
2022-11-07T09:25:35.887Z,84.83
2022-11-07T09:28:03.938Z,85.06
2022-11-07T09:30:31.110Z,85.20
2022-11-07T09:32:57.880Z,85.95
2022-11-07T09:35:24.838Z,86.24
2022-11-07T09:37:52.039Z,86.64
2022-11-07T09:40:24.422Z,85.37
2022-11-07T09:43:02.910Z,84.49
2022-11-07T09:45:33.259Z,84.75
2022-11-07T09:48:05.395Z,84.55
2022-11-07T09:50:38.424Z,84.43
2022-11-07T09:53:30.087Z,83.53
2022-11-07T09:56:00.991Z,84.04
2022-11-07T09:58:33.073Z,84.53
2022-11-07T10:01:20.972Z,83.47
2022-11-07T10:06:49.202Z,83.98
2022-11-07T10:09:37.227Z,82.95
2022-11-07T10:12:25.516Z,83.93
2022-11-07T10:15:03.509Z,83.51
2022-11-07T10:17:36.368Z,84.66
2022-11-07T10:20:08.745Z,84.87
2022-11-07T10:23:07.643Z,84.88
2022-11-07T10:25:46.889Z,85.51
2022-11-07T10:28:18.949Z,85.28
2022-11-07T10:30:51.291Z,84.65
2022-11-07T10:33:34.400Z,84.24
2022-11-07T10:36:22.447Z,83.92
2022-11-07T10:38:49.269Z,83.28
2022-11-07T10:41:24.654Z,82.67
2022-11-07T10:44:08.119Z,82.59
2022-11-07T10:46:42.046Z,82.46
2022-11-07T10:49:20.047Z,81.92
2022-11-07T10:51:47.059Z,82.16
2022-11-07T10:54:25.539Z,81.32
2022-11-07T10:57:05.557Z,79.95
2022-11-07T10:59:36.701Z,78.53
2022-11-07T11:02:18.918Z,78.50
2022-11-07T11:04:51.325Z,78.33
2022-11-07T11:07:21.866Z,78.21
2022-11-07T11:09:56.023Z,79.41
2022-11-07T11:12:34.297Z,79.43
2022-11-07T11:15:05.802Z,79.17
2022-11-07T11:17:33.687Z,80.36
2022-11-07T11:20:00.418Z,79.90
2022-11-07T11:22:29.533Z,79.91
2022-11-07T11:25:19.603Z,79.85
2022-11-07T11:27:49.148Z,81.23
2022-11-07T11:30:18.644Z,81.29
2022-11-07T11:33:05.230Z,80.71
2022-11-07T11:35:45.235Z,80.44
2022-11-07T11:38:23.904Z,79.69
2022-11-07T11:41:06.010Z,78.97
2022-11-07T11:43:48.730Z,79.24
2022-11-07T11:46:25.793Z,78.55
2022-11-07T11:49:09.564Z,77.59
2022-11-07T11:51:43.512Z,77.42
2022-11-07T11:54:12.685Z,77.66
2022-11-07T11:57:02.001Z,77.97
2022-11-07T12:00:00.186Z,78.16
2022-11-07T12:02:29.444Z,78.73
2022-11-07T12:05:14.599Z,78.55
2022-11-07T12:07:50.146Z,79.31
2022-11-07T12:10:33.969Z,78.58
2022-11-07T12:13:19.572Z,79.10
2022-11-07T12:16:24.086Z,80.91
2022-11-07T12:19:15.277Z,79.37
2022-11-07T12:22:03.348Z,79.88
2022-11-07T12:24:42.117Z,79.52
2022-11-07T12:27:28.950Z,79.37
2022-11-07T12:30:05.825Z,77.90
2022-11-07T12:32:48.480Z,77.85
2022-11-07T12:35:26.520Z,79.16
2022-11-07T12:38:21.258Z,79.95
2022-11-07T12:41:10.827Z,80.21
2022-11-07T12:43:37.387Z,81.12
2022-11-07T12:46:45.390Z,81.66
2022-11-07T12:49:37.970Z,81.68
2022-11-07T12:52:04.536Z,81.81
2022-11-07T12:55:00.533Z,82.67
2022-11-07T12:57:38.241Z,82.51
2022-11-07T13:00:21.299Z,82.34
2022-11-07T13:03:16.442Z,82.41
2022-11-07T13:05:55.095Z,81.94
2022-11-07T13:08:42.259Z,81.87
2022-11-07T13:11:41.081Z,81.59
2022-11-07T13:14:34.404Z,81.68
2022-11-07T13:17:13.125Z,81.46
2022-11-07T13:19:43.005Z,81.22
2022-11-07T13:22:15.715Z,80.57
2022-11-07T13:25:09.410Z,79.44
2022-11-07T13:27:41.611Z,78.96
2022-11-07T13:30:13.941Z,79.02
2022-11-07T13:32:59.685Z,81.53
2022-11-07T13:35:35.363Z,80.97
2022-11-07T13:38:09.664Z,82.22
2022-11-07T13:40:38.052Z,82.30
2022-11-07T13:43:25.891Z,82.48
2022-11-07T13:45:56.682Z,83.84
2022-11-07T13:48:29.132Z,83.29
2022-11-07T13:51:05.653Z,83.41
2022-11-07T13:54:07.577Z,83.39
2022-11-07T13:56:40.370Z,83.34
2022-11-07T13:59:14.103Z,82.68
2022-11-07T14:01:43.282Z,82.27
2022-11-07T14:04:18.327Z,82.15
2022-11-07T14:06:45.309Z,81.78
2022-11-07T14:09:16.555Z,82.15
2022-11-07T14:11:43.719Z,81.64
2022-11-07T14:14:10.861Z,81.43
2022-11-07T14:16:37.943Z,81.46
2022-11-07T14:19:07.081Z,81.88
2022-11-07T14:21:36.134Z,81.47
2022-11-07T14:24:04.373Z,81.28
2022-11-07T14:26:33.383Z,81.26
2022-11-07T14:29:01.624Z,81.71
2022-11-07T14:31:32.055Z,82.19
2022-11-07T14:34:05.771Z,82.22
2022-11-07T14:36:34.363Z,81.88
2022-11-07T14:39:12.784Z,81.24
2022-11-07T14:41:42.792Z,81.79
2022-11-07T14:44:28.528Z,81.26
2022-11-07T14:46:59.221Z,81.79
2022-11-07T14:49:31.682Z,81.67
2022-11-07T14:51:58.747Z,82.92
2022-11-07T14:54:34.437Z,84.58
2022-11-07T14:57:02.022Z,86.25
2022-11-07T14:59:33.504Z,86.42
2022-11-07T15:02:23.851Z,88.65
2022-11-07T15:04:50.827Z,90.26
2022-11-07T15:07:29.628Z,90.78
2022-11-07T15:09:58.302Z,92.63
2022-11-07T15:12:28.019Z,93.62
2022-11-07T15:15:18.039Z,93.97
2022-11-07T15:17:49.673Z,94.77
2022-11-07T15:20:22.537Z,95.14
2022-11-07T15:22:49.204Z,95.43
2022-11-07T15:25:34.351Z,96.06
2022-11-07T15:28:22.175Z,96.86
2022-11-07T15:30:50.398Z,97.52
2022-11-07T15:33:18.043Z,98.44
2022-11-07T15:35:47.259Z,100.00
2022-11-07T15:38:22.910Z,100.00
2022-11-07T15:40:51.476Z,100.00
2022-11-07T15:43:18.568Z,100.00
2022-11-07T15:45:46.292Z,100.00
2022-11-07T15:48:27.030Z,100.00
2022-11-07T15:50:54.289Z,100.00
2022-11-07T15:53:22.868Z,100.00
2022-11-07T15:56:04.623Z,100.00
2022-11-07T15:58:31.325Z,100.00
2022-11-07T16:00:58.845Z,100.00
2022-11-07T16:03:27.302Z,100.00
2022-11-07T16:05:57.809Z,100.00
2022-11-07T16:08:25.051Z,100.00
2022-11-07T16:11:07.593Z,100.00
2022-11-07T16:13:34.176Z,100.00
2022-11-07T16:16:08.210Z,100.00
2022-11-07T16:18:45.025Z,100.00
2022-11-07T16:21:11.665Z,100.00
2022-11-07T16:23:39.103Z,100.00
2022-11-07T16:26:05.971Z,100.00
2022-11-07T16:28:34.735Z,100.00
2022-11-07T16:31:02.414Z,100.00
2022-11-07T16:33:29.362Z,100.00
2022-11-07T16:36:02.770Z,100.00
2022-11-07T16:38:35.042Z,100.00
2022-11-07T16:41:01.925Z,100.00
2022-11-07T16:43:28.580Z,100.00
2022-11-07T16:45:56.687Z,100.00
2022-11-07T16:48:28.961Z,100.00
2022-11-07T16:50:56.571Z,100.00
2022-11-07T16:53:25.005Z,100.00
2022-11-07T16:55:55.029Z,100.00
2022-11-07T16:58:29.279Z,100.00
2022-11-07T17:00:58.014Z,100.00
2022-11-07T17:03:25.136Z,100.00
2022-11-07T17:05:54.328Z,100.00
2022-11-07T17:08:28.159Z,100.00
2022-11-07T17:10:54.901Z,100.00
2022-11-07T17:13:23.065Z,100.00
2022-11-07T17:15:50.130Z,100.00
2022-11-07T17:18:22.022Z,100.00
2022-11-07T17:20:51.237Z,100.00
2022-11-07T17:23:18.137Z,100.00
2022-11-07T17:25:53.714Z,100.00
2022-11-07T17:28:21.661Z,100.00
2022-11-07T17:30:48.501Z,100.00
2022-11-07T17:33:15.126Z,100.00
2022-11-07T17:35:41.996Z,100.00
2022-11-07T17:38:16.566Z,100.00
2022-11-07T17:40:43.591Z,100.00
2022-11-07T17:43:10.298Z,100.00
2022-11-07T17:45:37.502Z,100.00
2022-11-07T17:48:04.461Z,100.00
2022-11-07T17:50:31.218Z,100.00
2022-11-07T17:52:58.192Z,100.00
2022-11-07T17:55:25.579Z,100.00
2022-11-07T17:57:52.488Z,100.00
2022-11-07T18:00:24.774Z,100.00
2022-11-07T18:02:52.925Z,100.00
2022-11-07T18:05:22.290Z,100.00
2022-11-07T18:07:48.901Z,100.00
2022-11-07T18:10:16.534Z,100.00
2022-11-07T18:12:43.765Z,100.00
2022-11-07T18:15:14.475Z,100.00
2022-11-07T18:17:41.655Z,100.00
2022-11-07T18:20:10.146Z,100.00
2022-11-07T18:22:37.620Z,100.00
2022-11-07T18:25:06.624Z,100.00
2022-11-07T18:27:33.748Z,100.00
2022-11-07T18:30:00.465Z,100.00
2022-11-07T18:32:35.539Z,100.00
2022-11-07T18:35:06.517Z,100.00
2022-11-07T18:37:33.280Z,100.00
2022-11-07T18:39:59.863Z,100.00
2022-11-07T18:42:26.465Z,100.00
2022-11-07T18:44:53.060Z,100.00
2022-11-07T18:47:19.666Z,100.00
2022-11-07T18:49:46.242Z,100.00
2022-11-07T18:52:13.450Z,100.00
2022-11-07T18:54:40.030Z,100.00
2022-11-07T18:57:06.628Z,100.00
2022-11-07T18:59:33.349Z,100.00
2022-11-07T19:02:00.054Z,100.00
2022-11-07T19:04:26.742Z,100.00
2022-11-07T19:06:57.212Z,100.00
2022-11-07T19:09:29.555Z,100.00
2022-11-07T19:11:57.893Z,100.00
2022-11-07T19:14:25.834Z,100.00
2022-11-07T19:16:53.282Z,100.00
2022-11-07T19:19:19.866Z,100.00
2022-11-07T19:21:46.483Z,100.00
2022-11-07T19:24:13.197Z,100.00
2022-11-07T19:26:40.487Z,100.00
2022-11-07T19:29:11.066Z,100.00
2022-11-07T19:31:38.652Z,100.00
2022-11-07T19:34:06.078Z,100.00
2022-11-07T19:36:33.458Z,100.00
2022-11-07T19:39:00.258Z,100.00
2022-11-07T19:41:26.860Z,100.00
2022-11-07T19:43:53.523Z,100.00
2022-11-07T19:46:22.737Z,100.00
2022-11-07T19:48:50.634Z,100.00
2022-11-07T19:51:22.203Z,100.00
2022-11-07T19:53:58.274Z,100.00
2022-11-07T19:56:28.057Z,100.00
2022-11-07T19:58:55.022Z,100.00
2022-11-07T20:01:25.413Z,100.00
2022-11-07T20:03:53.217Z,100.00
2022-11-07T20:06:22.917Z,100.00
2022-11-07T20:08:50.793Z,100.00
2022-11-07T20:11:20.316Z,100.00
2022-11-07T20:13:47.992Z,100.00
2022-11-07T20:16:15.460Z,100.00
2022-11-07T20:18:42.119Z,100.00
2022-11-07T20:21:13.190Z,100.00
2022-11-07T20:23:41.450Z,100.00
2022-11-07T20:26:11.915Z,100.00
2022-11-07T20:28:38.591Z,100.00
2022-11-07T20:31:13.139Z,100.00
2022-11-07T20:33:40.020Z,100.00
2022-11-07T20:36:09.827Z,100.00
2022-11-07T20:38:37.073Z,100.00
2022-11-07T20:41:04.971Z,100.00
2022-11-07T20:43:33.868Z,100.00
2022-11-07T20:46:05.602Z,100.00
2022-11-07T20:48:32.412Z,100.00
2022-11-07T20:50:59.079Z,100.00
2022-11-07T20:53:25.721Z,100.00
2022-11-07T20:55:52.317Z,100.00
2022-11-07T20:58:18.900Z,100.00
2022-11-07T21:00:47.063Z,100.00
2022-11-07T21:03:15.395Z,100.00
2022-11-07T21:05:42.271Z,100.00
2022-11-07T21:08:08.866Z,100.00
2022-11-07T21:10:35.542Z,100.00
2022-11-07T21:13:02.170Z,100.00
2022-11-07T21:15:28.999Z,100.00
2022-11-07T21:17:55.713Z,100.00
2022-11-07T21:20:23.098Z,100.00
2022-11-07T21:22:50.728Z,100.00
2022-11-07T21:25:17.390Z,100.00
2022-11-07T21:27:44.133Z,100.00
2022-11-07T21:30:10.979Z,100.00
2022-11-07T21:32:37.817Z,100.00
2022-11-07T21:35:04.683Z,100.00
2022-11-07T21:37:31.290Z,100.00
2022-11-07T21:39:57.919Z,100.00
2022-11-07T21:42:24.575Z,100.00
2022-11-07T21:44:51.272Z,100.00
2022-11-07T21:47:17.850Z,100.00
2022-11-07T21:49:44.441Z,100.00
2022-11-07T21:52:11.354Z,100.00
2022-11-07T21:54:37.983Z,100.00
2022-11-07T21:57:04.560Z,100.00
2022-11-07T21:59:31.382Z,100.00
2022-11-07T22:01:58.399Z,100.00
2022-11-07T22:04:25.136Z,100.00
2022-11-07T22:06:51.770Z,100.00
2022-11-07T22:09:20.827Z,100.00
2022-11-07T22:11:48.219Z,100.00
2022-11-07T22:14:17.740Z,100.00
2022-11-07T22:16:44.621Z,100.00
2022-11-07T22:19:12.943Z,100.00
2022-11-07T22:21:40.340Z,100.00
2022-11-07T22:24:07.332Z,100.00
2022-11-07T22:26:33.948Z,100.00
2022-11-07T22:29:00.610Z,100.00
2022-11-07T22:31:32.870Z,100.00
2022-11-07T22:34:01.057Z,100.00
2022-11-07T22:36:28.267Z,100.00
2022-11-07T22:38:57.374Z,100.00
2022-11-07T22:41:25.299Z,100.00
2022-11-07T22:43:53.265Z,100.00
2022-11-07T22:46:21.892Z,100.00
2022-11-07T22:48:50.109Z,100.00
2022-11-07T22:51:19.966Z,100.00
2022-11-07T22:53:47.063Z,100.00
2022-11-07T22:56:20.007Z,100.00
2022-11-07T22:58:47.454Z,100.00
2022-11-07T23:01:18.369Z,100.00
2022-11-07T23:03:45.670Z,100.00
2022-11-07T23:06:12.401Z,100.00
2022-11-07T23:08:39.053Z,100.00
2022-11-07T23:14:02.649Z,100.00
2022-11-07T23:16:55.627Z,100.00
2022-11-07T23:19:25.026Z,100.00
2022-11-07T23:21:56.385Z,100.00
2022-11-07T23:24:23.467Z,100.00
2022-11-07T23:26:50.073Z,100.00
2022-11-07T23:29:19.786Z,100.00
2022-11-07T23:31:48.262Z,100.00
2022-11-07T23:34:15.049Z,100.00
2022-11-07T23:36:44.243Z,100.00
2022-11-07T23:39:17.346Z,100.00
2022-11-07T23:41:44.755Z,100.00
2022-11-07T23:44:11.712Z,100.00
2022-11-07T23:46:57.595Z,100.00
2022-11-07T23:49:42.572Z,100.00
2022-11-07T23:52:09.266Z,100.00
2022-11-07T23:55:11.464Z,100.00
2022-11-07T23:57:58.091Z,100.00
